createdAt,value
2018-08-19T00:00:03.953Z,1009.11
2018-08-19T00:01:03.954Z,1009.12
2018-08-19T00:02:03.935Z,1009.16
2018-08-19T00:03:03.915Z,1009.19
2018-08-19T00:04:03.943Z,1009.19
2018-08-19T00:05:03.908Z,1009.17
2018-08-19T00:06:03.892Z,1009.18
2018-08-19T00:07:03.912Z,1009.17
2018-08-19T00:08:03.871Z,1009.16
2018-08-19T00:09:03.915Z,1009.14
2018-08-19T00:10:03.863Z,1009.15
2018-08-19T00:11:03.849Z,1009.14
2018-08-19T00:12:03.829Z,1009.17
2018-08-19T00:13:03.881Z,1009.13
2018-08-19T00:14:03.817Z,1009.13
2018-08-19T00:15:03.816Z,1009.15
2018-08-19T00:16:03.794Z,1009.13
2018-08-19T00:17:03.791Z,1009.13
2018-08-19T00:18:03.775Z,1009.11
2018-08-19T00:19:03.799Z,1009.07
2018-08-19T00:20:03.762Z,1009.09
2018-08-19T00:21:03.750Z,1009.10
2018-08-19T00:22:03.751Z,1009.08
2018-08-19T00:23:03.736Z,1009.11
2018-08-19T00:24:03.751Z,1009.08
2018-08-19T00:25:03.720Z,1009.06
2018-08-19T00:26:03.695Z,1009.07
2018-08-19T00:27:03.690Z,1009.10
2018-08-19T00:28:03.683Z,1009.09
2018-08-19T00:29:03.705Z,1009.08
2018-08-19T00:30:03.664Z,1009.10
2018-08-19T00:31:03.661Z,1009.08
2018-08-19T00:32:03.634Z,1009.08
2018-08-19T00:33:03.644Z,1009.08
2018-08-19T00:34:03.646Z,1009.06
2018-08-19T00:35:03.623Z,1009.07
2018-08-19T00:36:03.659Z,1009.12
2018-08-19T00:37:03.598Z,1009.10
2018-08-19T00:38:03.589Z,1009.11
2018-08-19T00:39:03.586Z,1009.10
2018-08-19T00:40:03.571Z,1009.08
2018-08-19T00:41:03.597Z,1009.13
2018-08-19T00:42:03.589Z,1009.08
2018-08-19T00:43:03.543Z,1009.08
2018-08-19T00:44:03.534Z,1009.08
2018-08-19T00:45:03.522Z,1009.11
2018-08-19T00:46:03.532Z,1009.09
2018-08-19T00:47:03.504Z,1009.09
2018-08-19T00:48:03.509Z,1009.11
2018-08-19T00:49:03.481Z,1009.12
2018-08-19T00:50:03.476Z,1009.11
2018-08-19T00:51:03.487Z,1009.09
2018-08-19T00:52:03.446Z,1009.09
2018-08-19T00:53:03.448Z,1009.09
2018-08-19T00:54:03.458Z,1009.07
2018-08-19T00:55:03.425Z,1009.07
2018-08-19T00:56:03.449Z,1009.04
2018-08-19T00:57:03.409Z,1009.04
2018-08-19T00:58:03.385Z,1009.00
2018-08-19T00:59:03.386Z,1009.01
2018-08-19T01:00:03.380Z,1009.02
2018-08-19T01:01:03.391Z,1009.00
2018-08-19T01:02:03.363Z,1008.98
2018-08-19T01:03:03.354Z,1008.97
2018-08-19T01:04:03.343Z,1008.95
2018-08-19T01:05:03.326Z,1008.96
2018-08-19T01:06:03.353Z,1008.95
2018-08-19T01:07:03.304Z,1008.96
2018-08-19T01:08:03.298Z,1008.98
2018-08-19T01:09:03.291Z,1008.94
2018-08-19T01:10:03.284Z,1008.94
2018-08-19T01:11:03.265Z,1008.91
2018-08-19T01:12:03.253Z,1008.94
2018-08-19T01:13:03.240Z,1008.89
2018-08-19T01:14:03.303Z,1008.92
2018-08-19T01:15:03.236Z,1008.92
2018-08-19T01:16:03.209Z,1008.94
2018-08-19T01:17:03.214Z,1008.93
2018-08-19T01:18:03.202Z,1008.92
2018-08-19T01:19:03.191Z,1008.94
2018-08-19T01:20:03.176Z,1008.96
2018-08-19T01:21:03.195Z,1008.94
2018-08-19T01:22:03.160Z,1008.93
2018-08-19T01:23:03.144Z,1008.95
2018-08-19T01:24:03.142Z,1008.86
2018-08-19T01:25:03.134Z,1008.91
2018-08-19T01:26:03.148Z,1008.91
2018-08-19T01:27:03.113Z,1008.89
2018-08-19T01:28:03.106Z,1008.87
2018-08-19T01:29:03.080Z,1008.89
2018-08-19T01:30:03.071Z,1008.88
2018-08-19T01:31:03.065Z,1008.88
2018-08-19T01:32:03.048Z,1008.91
2018-08-19T01:33:03.040Z,1008.94
2018-08-19T01:34:03.029Z,1008.91
2018-08-19T01:35:03.040Z,1008.90
2018-08-19T01:36:03.014Z,1008.90
2018-08-19T01:37:03.042Z,1008.86
2018-08-19T01:38:03.000Z,1008.87
2018-08-19T01:39:02.984Z,1008.90
2018-08-19T01:40:02.980Z,1008.90
2018-08-19T01:41:02.968Z,1008.90
2018-08-19T01:42:02.982Z,1008.92
2018-08-19T01:43:02.970Z,1008.91
2018-08-19T01:44:02.938Z,1008.92
2018-08-19T01:45:02.929Z,1008.96
2018-08-19T01:46:02.918Z,1008.91
2018-08-19T01:47:02.966Z,1008.93
2018-08-19T01:48:02.892Z,1008.91
2018-08-19T01:49:02.883Z,1008.94
2018-08-19T01:50:02.883Z,1008.94
2018-08-19T01:51:02.865Z,1008.93
2018-08-19T01:52:02.872Z,1008.91
2018-08-19T01:53:02.852Z,1008.95
2018-08-19T01:54:02.831Z,1008.92
2018-08-19T01:55:02.815Z,1008.96
2018-08-19T01:56:02.822Z,1008.94
2018-08-19T01:57:02.803Z,1008.94
2018-08-19T01:58:02.828Z,1008.92
2018-08-19T01:59:02.785Z,1008.93
2018-08-19T02:00:02.768Z,1008.95
2018-08-19T02:01:02.756Z,1008.93
2018-08-19T02:02:02.752Z,1008.89
2018-08-19T02:03:02.763Z,1008.87
2018-08-19T02:04:02.736Z,1008.87
2018-08-19T02:05:02.738Z,1008.88
2018-08-19T02:06:02.710Z,1008.89
2018-08-19T02:07:02.700Z,1008.87
2018-08-19T02:08:02.721Z,1008.91
2018-08-19T02:09:02.676Z,1008.85
2018-08-19T02:10:02.705Z,1008.88
2018-08-19T02:11:02.691Z,1008.91
2018-08-19T02:12:02.643Z,1008.90
2018-08-19T02:13:02.636Z,1008.89
2018-08-19T02:14:02.624Z,1008.89
2018-08-19T02:15:02.619Z,1008.87
2018-08-19T02:16:02.663Z,1008.80
2018-08-19T02:17:02.602Z,1008.85
2018-08-19T02:18:02.591Z,1008.86
2018-08-19T02:19:02.588Z,1008.84
2018-08-19T02:20:02.562Z,1008.85
2018-08-19T02:21:02.561Z,1008.87
2018-08-19T02:22:02.581Z,1008.86
2018-08-19T02:23:02.540Z,1008.86
2018-08-19T02:24:02.524Z,1008.88
2018-08-19T02:25:02.518Z,1008.87
2018-08-19T02:26:02.509Z,1008.87
2018-08-19T02:27:02.546Z,1008.87
2018-08-19T02:28:02.488Z,1008.85
2018-08-19T02:29:02.475Z,1008.82
2018-08-19T02:30:02.462Z,1008.85
2018-08-19T02:31:02.464Z,1008.83
2018-08-19T02:32:02.446Z,1008.83
2018-08-19T02:33:02.434Z,1008.83
2018-08-19T02:34:02.418Z,1008.81
2018-08-19T02:35:02.405Z,1008.78
2018-08-19T02:36:02.395Z,1008.77
2018-08-19T02:37:02.396Z,1008.78
2018-08-19T02:38:02.386Z,1008.80
2018-08-19T02:39:02.368Z,1008.82
2018-08-19T02:40:02.367Z,1008.82
2018-08-19T02:41:02.354Z,1008.81
2018-08-19T02:42:02.332Z,1008.77
2018-08-19T02:43:02.345Z,1008.80
2018-08-19T02:44:02.398Z,1008.74
2018-08-19T02:45:02.305Z,1008.74
2018-08-19T02:46:02.291Z,1008.76
2018-08-19T02:47:02.303Z,1008.77
2018-08-19T02:48:02.281Z,1008.75
2018-08-19T02:49:02.268Z,1008.73
2018-08-19T02:50:02.269Z,1008.74
2018-08-19T02:51:02.248Z,1008.78
2018-08-19T02:52:02.242Z,1008.80
2018-08-19T02:53:02.230Z,1008.78
2018-08-19T02:54:02.264Z,1008.74
2018-08-19T02:55:02.209Z,1008.78
2018-08-19T02:56:02.197Z,1008.76
2018-08-19T02:57:02.185Z,1008.75
2018-08-19T02:58:02.181Z,1008.76
2018-08-19T02:59:02.174Z,1008.76
2018-08-19T03:00:02.163Z,1008.76
2018-08-19T03:01:02.181Z,1008.74
2018-08-19T03:02:02.136Z,1008.72
2018-08-19T03:03:02.128Z,1008.71
2018-08-19T03:04:02.117Z,1008.76
2018-08-19T03:05:02.142Z,1008.76
2018-08-19T03:06:02.128Z,1008.75
2018-08-19T03:07:02.086Z,1008.71
2018-08-19T03:08:02.079Z,1008.73
2018-08-19T03:09:02.061Z,1008.72
2018-08-19T03:10:02.055Z,1008.69
2018-08-19T03:11:02.101Z,1008.67
2018-08-19T03:12:02.034Z,1008.72
2018-08-19T03:13:02.030Z,1008.68
2018-08-19T03:14:02.014Z,1008.70
2018-08-19T03:15:02.005Z,1008.68
2018-08-19T03:16:01.992Z,1008.68
2018-08-19T03:17:02.012Z,1008.66
2018-08-19T03:18:01.977Z,1008.67
2018-08-19T03:19:01.954Z,1008.67
2018-08-19T03:20:01.954Z,1008.65
2018-08-19T03:21:01.937Z,1008.66
2018-08-19T03:22:01.994Z,1008.66
2018-08-19T03:23:01.927Z,1008.62
2018-08-19T03:24:01.900Z,1008.62
2018-08-19T03:25:01.909Z,1008.62
2018-08-19T03:26:01.877Z,1008.61
2018-08-19T03:27:01.874Z,1008.62
2018-08-19T03:28:01.879Z,1008.58
2018-08-19T03:29:01.863Z,1008.61
2018-08-19T03:30:01.852Z,1008.64
2018-08-19T03:31:01.847Z,1008.59
2018-08-19T03:32:01.826Z,1008.58
2018-08-19T03:33:01.857Z,1008.56
2018-08-19T03:34:01.810Z,1008.53
2018-08-19T03:35:01.794Z,1008.52
2018-08-19T03:36:01.785Z,1008.50
2018-08-19T03:37:01.802Z,1008.52
2018-08-19T03:38:01.861Z,1008.54
2018-08-19T03:39:01.777Z,1008.50
2018-08-19T03:40:01.734Z,1008.51
2018-08-19T03:41:01.741Z,1008.50
2018-08-19T03:42:01.718Z,1008.45
2018-08-19T03:43:01.728Z,1008.49
2018-08-19T03:44:01.723Z,1008.48
2018-08-19T03:45:01.688Z,1008.49
2018-08-19T03:46:01.681Z,1008.51
2018-08-19T03:47:01.692Z,1008.51
2018-08-19T03:48:01.652Z,1008.49
2018-08-19T03:49:01.685Z,1008.51
2018-08-19T03:50:01.711Z,1008.48
2018-08-19T03:51:01.620Z,1008.53
2018-08-19T03:52:01.610Z,1008.53
2018-08-19T03:53:01.605Z,1008.49
2018-08-19T03:54:01.620Z,1008.51
2018-08-19T03:55:01.583Z,1008.53
2018-08-19T03:56:01.599Z,1008.49
2018-08-19T03:57:01.560Z,1008.49
2018-08-19T03:58:01.557Z,1008.46
2018-08-19T03:59:01.553Z,1008.50
2018-08-19T04:00:01.536Z,1008.46
2018-08-19T04:01:01.551Z,1008.47
2018-08-19T04:02:01.508Z,1008.43
2018-08-19T04:03:01.504Z,1008.44
2018-08-19T04:04:01.489Z,1008.44
2018-08-19T04:05:01.467Z,1008.47
2018-08-19T04:06:01.504Z,1008.46
2018-08-19T04:07:01.452Z,1008.45
2018-08-19T04:08:01.451Z,1008.45
2018-08-19T04:09:01.438Z,1008.46
2018-08-19T04:10:01.433Z,1008.43
2018-08-19T04:11:01.483Z,1008.43
2018-08-19T04:12:01.402Z,1008.41
2018-08-19T04:13:01.394Z,1008.44
2018-08-19T04:14:01.381Z,1008.45
2018-08-19T04:15:01.380Z,1008.41
2018-08-19T04:16:01.360Z,1008.45
2018-08-19T04:17:01.375Z,1008.41
2018-08-19T04:18:01.342Z,1008.41
2018-08-19T04:19:01.488Z,1008.37
2018-08-19T04:20:01.323Z,1008.40
2018-08-19T04:21:01.302Z,1008.38
2018-08-19T04:22:01.305Z,1008.39
2018-08-19T04:23:01.286Z,1008.39
2018-08-19T04:24:01.275Z,1008.36
2018-08-19T04:25:01.274Z,1008.39
2018-08-19T04:26:01.322Z,1008.39
2018-08-19T04:27:01.240Z,1008.43
2018-08-19T04:28:01.232Z,1008.40
2018-08-19T04:29:01.228Z,1008.40
2018-08-19T04:30:01.214Z,1008.42
2018-08-19T04:31:01.203Z,1008.39
2018-08-19T04:32:01.202Z,1008.38
2018-08-19T04:33:01.191Z,1008.42
2018-08-19T04:34:01.176Z,1008.40
2018-08-19T04:35:01.165Z,1008.44
2018-08-19T04:36:01.142Z,1008.44
2018-08-19T04:37:01.172Z,1008.40
2018-08-19T04:38:01.141Z,1008.36
2018-08-19T04:39:01.121Z,1008.40
2018-08-19T04:40:01.108Z,1008.37
2018-08-19T04:41:01.098Z,1008.35
2018-08-19T04:42:01.118Z,1008.42
2018-08-19T04:43:01.083Z,1008.39
2018-08-19T04:44:01.074Z,1008.40
2018-08-19T04:45:01.056Z,1008.41
2018-08-19T04:46:01.045Z,1008.39
2018-08-19T04:47:01.097Z,1008.37
2018-08-19T04:48:01.036Z,1008.39
2018-08-19T04:49:01.092Z,1008.38
2018-08-19T04:50:01.002Z,1008.36
2018-08-19T04:51:00.999Z,1008.36
2018-08-19T04:52:00.970Z,1008.33
2018-08-19T04:53:01.034Z,1008.33
2018-08-19T04:54:00.956Z,1008.32
2018-08-19T04:55:00.956Z,1008.30
2018-08-19T04:56:00.942Z,1008.30
2018-08-19T04:57:00.929Z,1008.29
2018-08-19T04:58:00.923Z,1008.29
2018-08-19T04:59:00.919Z,1008.30
2018-08-19T05:00:00.968Z,1008.30
2018-08-19T05:01:00.889Z,1008.28
2018-08-19T05:02:00.888Z,1008.32
2018-08-19T05:03:00.866Z,1008.32
2018-08-19T05:04:00.857Z,1008.30
2018-08-19T05:05:00.846Z,1008.33
2018-08-19T05:06:00.887Z,1008.34
2018-08-19T05:07:00.816Z,1008.34
2018-08-19T05:08:00.922Z,1008.33
2018-08-19T05:09:00.802Z,1008.36
2018-08-19T05:10:00.786Z,1008.36
2018-08-19T05:11:00.781Z,1008.35
2018-08-19T05:12:00.786Z,1008.35
2018-08-19T05:13:00.762Z,1008.33
2018-08-19T05:14:00.752Z,1008.33
2018-08-19T05:15:00.734Z,1008.32
2018-08-19T05:16:00.733Z,1008.37
2018-08-19T05:17:00.749Z,1008.35
2018-08-19T05:18:00.709Z,1008.39
2018-08-19T05:19:00.699Z,1008.39
2018-08-19T05:20:00.685Z,1008.39
2018-08-19T05:21:00.683Z,1008.42
2018-08-19T05:22:00.682Z,1008.39
2018-08-19T05:23:00.660Z,1008.39
2018-08-19T05:24:00.644Z,1008.41
2018-08-19T05:25:00.641Z,1008.39
2018-08-19T05:26:00.628Z,1008.44
2018-08-19T05:27:00.637Z,1008.46
2018-08-19T05:28:00.602Z,1008.46
2018-08-19T05:29:00.597Z,1008.47
2018-08-19T05:30:00.588Z,1008.42
2018-08-19T05:31:00.572Z,1008.44
2018-08-19T05:32:00.614Z,1008.43
2018-08-19T05:33:00.552Z,1008.42
2018-08-19T05:34:00.543Z,1008.43
2018-08-19T05:35:00.537Z,1008.44
2018-08-19T05:36:00.522Z,1008.47
2018-08-19T05:37:00.546Z,1008.44
2018-08-19T05:38:00.525Z,1008.47
2018-08-19T05:39:00.490Z,1008.47
2018-08-19T05:40:00.482Z,1008.45
2018-08-19T05:41:00.462Z,1008.51
2018-08-19T05:42:00.484Z,1008.49
2018-08-19T05:43:00.449Z,1008.49
2018-08-19T05:44:00.436Z,1008.51
2018-08-19T05:45:00.428Z,1008.48
2018-08-19T05:46:00.420Z,1008.52
2018-08-19T05:47:00.524Z,1008.48
2018-08-19T05:48:00.425Z,1008.49
2018-08-19T05:49:00.390Z,1008.50
2018-08-19T05:50:00.376Z,1008.50
2018-08-19T05:51:00.364Z,1008.53
2018-08-19T05:52:00.349Z,1008.52
2018-08-19T05:53:00.381Z,1008.54
2018-08-19T05:54:00.377Z,1008.57
2018-08-19T05:55:00.329Z,1008.57
2018-08-19T05:56:00.313Z,1008.52
2018-08-19T05:57:00.304Z,1008.53
2018-08-19T05:58:00.365Z,1008.52
2018-08-19T05:59:00.283Z,1008.55
2018-08-19T06:00:00.280Z,1008.58
2018-08-19T06:01:00.335Z,1008.57
2018-08-19T06:02:00.258Z,1008.54
2018-08-19T06:03:00.253Z,1008.57
2018-08-19T06:04:00.246Z,1008.56
2018-08-19T06:05:00.226Z,1008.57
2018-08-19T06:06:00.218Z,1008.58
2018-08-19T06:07:00.215Z,1008.51
2018-08-19T06:08:00.224Z,1008.54
2018-08-19T06:09:00.187Z,1008.50
2018-08-19T06:10:00.184Z,1008.49
2018-08-19T06:11:00.171Z,1008.46
2018-08-19T06:12:00.147Z,1008.50
2018-08-19T06:13:00.171Z,1008.44
2018-08-19T06:14:00.136Z,1008.44
2018-08-19T06:15:00.124Z,1008.42
2018-08-19T06:16:00.269Z,1008.43
2018-08-19T06:17:00.102Z,1008.41
2018-08-19T06:18:00.100Z,1008.40
2018-08-19T06:19:00.088Z,1008.34
2018-08-19T06:20:00.081Z,1008.38
2018-08-19T06:21:00.096Z,1008.37
2018-08-19T06:22:00.120Z,1008.40
2018-08-19T06:23:00.043Z,1008.40
2018-08-19T06:24:00.025Z,1008.36
2018-08-19T06:25:00.063Z,1008.37
2018-08-19T06:26:00.027Z,1008.37
2018-08-19T06:27:00.042Z,1008.39
2018-08-19T06:27:59.988Z,1008.38
2018-08-19T06:29:00.185Z,1008.41
2018-08-19T06:29:59.981Z,1008.43
2018-08-19T06:30:59.987Z,1008.42
2018-08-19T06:31:59.982Z,1008.45
2018-08-19T06:32:59.943Z,1008.42
2018-08-19T06:33:59.939Z,1008.45
2018-08-19T06:35:00.044Z,1008.44
2018-08-19T06:35:59.916Z,1008.42
2018-08-19T06:36:59.928Z,1008.43
2018-08-19T06:37:59.893Z,1008.45
2018-08-19T06:38:59.916Z,1008.43
2018-08-19T06:39:59.901Z,1008.42
2018-08-19T06:40:59.903Z,1008.43
2018-08-19T06:41:59.859Z,1008.38
2018-08-19T06:42:59.848Z,1008.38
2018-08-19T06:43:59.839Z,1008.42
2018-08-19T06:44:59.884Z,1008.40
2018-08-19T06:45:59.815Z,1008.40
2018-08-19T06:46:59.806Z,1008.39
2018-08-19T06:47:59.796Z,1008.44
2018-08-19T06:48:59.788Z,1008.44
2018-08-19T06:49:59.769Z,1008.43
2018-08-19T06:50:59.773Z,1008.44
2018-08-19T06:51:59.761Z,1008.48
2018-08-19T06:52:59.748Z,1008.47
2018-08-19T06:53:59.736Z,1008.48
2018-08-19T06:54:59.727Z,1008.49
2018-08-19T06:55:59.724Z,1008.46
2018-08-19T06:56:59.700Z,1008.43
2018-08-19T06:57:59.692Z,1008.44
2018-08-19T06:58:59.831Z,1008.43
2018-08-19T06:59:59.709Z,1008.44
2018-08-19T07:00:59.708Z,1008.45
2018-08-19T07:01:59.671Z,1008.47
2018-08-19T07:02:59.641Z,1008.44
2018-08-19T07:03:59.751Z,1008.47
2018-08-19T07:04:59.638Z,1008.45
2018-08-19T07:05:59.774Z,1008.48
2018-08-19T07:06:59.611Z,1008.44
2018-08-19T07:07:59.658Z,1008.43
2018-08-19T07:08:59.600Z,1008.46
2018-08-19T07:09:59.585Z,1008.45
2018-08-19T07:10:59.577Z,1008.46
2018-08-19T07:11:59.561Z,1008.44
2018-08-19T07:12:59.561Z,1008.42
2018-08-19T07:13:59.563Z,1008.36
2018-08-19T07:14:59.544Z,1008.39
2018-08-19T07:15:59.529Z,1008.41
2018-08-19T07:16:59.522Z,1008.46
2018-08-19T07:17:59.539Z,1008.48
2018-08-19T07:18:59.495Z,1008.44
2018-08-19T07:19:59.508Z,1008.44
2018-08-19T07:20:59.483Z,1008.42
2018-08-19T07:21:59.473Z,1008.43
2018-08-19T07:22:59.469Z,1008.39
2018-08-19T07:23:59.461Z,1008.41
2018-08-19T07:24:59.459Z,1008.37
2018-08-19T07:25:59.447Z,1008.41
2018-08-19T07:26:59.424Z,1008.37
2018-08-19T07:27:59.425Z,1008.36
2018-08-19T07:28:59.419Z,1008.36
2018-08-19T07:29:59.402Z,1008.32
2018-08-19T07:30:59.432Z,1008.40
2018-08-19T07:31:59.384Z,1008.37
2018-08-19T07:32:59.371Z,1008.38
2018-08-19T07:33:59.370Z,1008.40
2018-08-19T07:34:59.372Z,1008.35
2018-08-19T07:35:59.377Z,1008.38
2018-08-19T07:36:59.520Z,1008.38
2018-08-19T07:37:59.341Z,1008.36
2018-08-19T07:38:59.317Z,1008.39
2018-08-19T07:39:59.317Z,1008.33
2018-08-19T07:40:59.329Z,1008.31
2018-08-19T07:41:59.289Z,1008.33
2018-08-19T07:42:59.318Z,1008.32
2018-08-19T07:43:59.343Z,1008.29
2018-08-19T07:44:59.270Z,1008.30
2018-08-19T07:45:59.262Z,1008.31
2018-08-19T07:46:59.249Z,1008.32
2018-08-19T07:47:59.273Z,1008.34
2018-08-19T07:48:59.338Z,1008.32
2018-08-19T07:49:59.229Z,1008.36
2018-08-19T07:50:59.220Z,1008.34
2018-08-19T07:51:59.240Z,1008.34
2018-08-19T07:52:59.205Z,1008.33
2018-08-19T07:53:59.223Z,1008.32
2018-08-19T07:54:59.187Z,1008.31
2018-08-19T07:55:59.165Z,1008.33
2018-08-19T07:56:59.191Z,1008.37
2018-08-19T07:57:59.156Z,1008.31
2018-08-19T07:58:59.199Z,1008.36
2018-08-19T07:59:59.141Z,1008.31
2018-08-19T08:00:59.133Z,1008.31
2018-08-19T08:01:59.371Z,1008.32
2018-08-19T08:02:59.114Z,1008.33
2018-08-19T08:03:59.107Z,1008.36
2018-08-19T08:04:59.119Z,1008.38
2018-08-19T08:05:59.097Z,1008.38
2018-08-19T08:06:59.082Z,1008.34
2018-08-19T08:07:59.106Z,1008.37
2018-08-19T08:08:59.281Z,1008.36
2018-08-19T08:09:59.086Z,1008.35
2018-08-19T08:10:59.082Z,1008.35
2018-08-19T08:11:59.040Z,1008.29
2018-08-19T08:12:59.039Z,1008.35
2018-08-19T08:13:59.088Z,1008.31
2018-08-19T08:14:59.007Z,1008.29
2018-08-19T08:15:59.002Z,1008.30
2018-08-19T08:16:58.989Z,1008.25
2018-08-19T08:17:58.996Z,1008.26
2018-08-19T08:18:58.990Z,1008.26
2018-08-19T08:19:59.002Z,1008.24
2018-08-19T08:20:58.983Z,1008.26
2018-08-19T08:21:58.963Z,1008.25
2018-08-19T08:22:58.955Z,1008.23
2018-08-19T08:23:58.938Z,1008.21
2018-08-19T08:24:58.984Z,1008.19
2018-08-19T08:25:58.914Z,1008.20
2018-08-19T08:26:58.917Z,1008.23
2018-08-19T08:27:58.922Z,1008.14
2018-08-19T08:28:58.957Z,1008.18
2018-08-19T08:29:58.899Z,1008.18
2018-08-19T08:30:58.883Z,1008.17
2018-08-19T08:31:58.886Z,1008.21
2018-08-19T08:32:58.868Z,1008.15
2018-08-19T08:33:58.907Z,1008.16
2018-08-19T08:34:58.854Z,1008.17
2018-08-19T08:35:58.832Z,1008.16
2018-08-19T08:36:58.835Z,1008.22
2018-08-19T08:37:58.840Z,1008.16
2018-08-19T08:38:58.814Z,1008.17
2018-08-19T08:39:58.846Z,1008.14
2018-08-19T08:40:58.801Z,1008.12
2018-08-19T08:41:58.798Z,1008.10
2018-08-19T08:42:58.782Z,1008.10
2018-08-19T08:43:58.792Z,1008.06
2018-08-19T08:44:58.820Z,1008.09
2018-08-19T08:45:58.757Z,1008.14
2018-08-19T08:46:58.761Z,1008.10
2018-08-19T08:47:58.848Z,1008.12
2018-08-19T08:48:58.748Z,1008.16
2018-08-19T08:49:58.734Z,1008.13
2018-08-19T08:50:58.762Z,1008.13
2018-08-19T08:51:58.723Z,1008.11
2018-08-19T08:52:58.713Z,1008.07
2018-08-19T08:53:58.706Z,1008.16
2018-08-19T08:54:58.688Z,1008.11
2018-08-19T08:55:58.709Z,1008.12
2018-08-19T08:56:58.728Z,1008.14
2018-08-19T08:57:58.672Z,1008.12
2018-08-19T08:58:58.824Z,1008.14
2018-08-19T08:59:58.644Z,1008.15
2018-08-19T09:00:58.643Z,1008.14
2018-08-19T09:01:58.700Z,1008.18
2018-08-19T09:02:58.627Z,1008.15
2018-08-19T09:03:58.623Z,1008.12
2018-08-19T09:04:58.622Z,1008.16
2018-08-19T09:05:58.613Z,1008.15
2018-08-19T09:06:58.603Z,1008.13
2018-08-19T09:07:58.601Z,1008.18
2018-08-19T09:08:58.592Z,1008.16
2018-08-19T09:09:58.573Z,1008.17
2018-08-19T09:10:58.568Z,1008.13
2018-08-19T09:11:58.567Z,1008.14
2018-08-19T09:12:58.567Z,1008.08
2018-08-19T09:13:58.603Z,1008.10
2018-08-19T09:14:58.614Z,1008.08
2018-08-19T09:15:58.542Z,1008.08
2018-08-19T09:16:58.532Z,1008.11
2018-08-19T09:17:58.530Z,1008.09
2018-08-19T09:18:58.518Z,1007.98
2018-08-19T09:19:58.515Z,1008.02
2018-08-19T09:20:58.512Z,1007.98
2018-08-19T09:21:58.500Z,1007.98
2018-08-19T09:22:58.534Z,1008.03
2018-08-19T09:23:58.476Z,1007.98
2018-08-19T09:24:58.482Z,1008.01
2018-08-19T09:25:58.508Z,1007.95
2018-08-19T09:26:58.462Z,1007.99
2018-08-19T09:27:58.457Z,1007.95
2018-08-19T09:28:58.455Z,1007.98
2018-08-19T09:29:58.443Z,1007.95
2018-08-19T09:30:58.463Z,1007.99
2018-08-19T09:31:58.430Z,1007.92
2018-08-19T09:32:58.508Z,1007.99
2018-08-19T09:33:58.423Z,1007.96
2018-08-19T09:34:58.423Z,1007.92
2018-08-19T09:35:58.437Z,1007.95
2018-08-19T09:36:58.400Z,1007.89
2018-08-19T09:37:58.394Z,1007.90
2018-08-19T09:38:58.383Z,1007.91
2018-08-19T09:39:58.382Z,1007.95
2018-08-19T09:40:58.379Z,1007.99
2018-08-19T09:41:58.354Z,1007.98
2018-08-19T09:42:58.370Z,1007.95
2018-08-19T09:43:58.354Z,1007.99
2018-08-19T09:44:58.349Z,1008.00
2018-08-19T09:45:58.332Z,1008.02
2018-08-19T09:46:58.325Z,1008.05
2018-08-19T09:47:58.491Z,1008.10
2018-08-19T09:48:58.325Z,1008.00
2018-08-19T09:49:58.317Z,1008.06
2018-08-19T09:50:58.303Z,1008.03
2018-08-19T09:51:58.310Z,1007.94
2018-08-19T09:52:58.339Z,1007.90
2018-08-19T09:53:58.334Z,1007.86
2018-08-19T09:54:58.308Z,1007.77
2018-08-19T09:55:58.350Z,1007.81
2018-08-19T09:56:58.300Z,1007.81
2018-08-19T09:57:58.283Z,1007.78
2018-08-19T09:58:58.280Z,1007.73
2018-08-19T09:59:58.270Z,1007.68
2018-08-19T10:00:58.264Z,1007.67
2018-08-19T10:01:58.289Z,1007.78
2018-08-19T10:02:58.265Z,1007.72
2018-08-19T10:03:58.261Z,1007.67
2018-08-19T10:04:58.255Z,1007.78
2018-08-19T10:05:58.255Z,1007.79
2018-08-19T10:06:58.271Z,1007.72
2018-08-19T10:07:58.247Z,1007.70
2018-08-19T10:08:58.247Z,1007.68
2018-08-19T10:09:58.243Z,1007.68
2018-08-19T10:10:58.232Z,1007.64
2018-08-19T10:11:58.291Z,1007.76
2018-08-19T10:12:58.219Z,1007.73
2018-08-19T10:13:58.220Z,1007.81
2018-08-19T10:14:58.206Z,1007.89
2018-08-19T10:15:58.210Z,1007.80
2018-08-19T10:16:58.247Z,1007.68
2018-08-19T10:17:58.244Z,1007.64
2018-08-19T10:18:58.247Z,1007.88
2018-08-19T10:19:58.191Z,1007.87
2018-08-19T10:20:58.177Z,1007.87
2018-08-19T10:21:58.172Z,1007.82
2018-08-19T10:22:58.181Z,1007.77
2018-08-19T10:23:58.176Z,1007.64
2018-08-19T10:24:58.201Z,1007.64
2018-08-19T10:25:58.170Z,1007.63
2018-08-19T10:26:58.169Z,1007.65
2018-08-19T10:27:58.158Z,1007.64
2018-08-19T10:28:58.161Z,1007.55
2018-08-19T10:29:58.203Z,1007.54
2018-08-19T10:30:58.157Z,1007.51
2018-08-19T10:31:58.158Z,1007.44
2018-08-19T10:32:58.158Z,1007.50
2018-08-19T10:33:58.199Z,1007.40
2018-08-19T10:35:01.786Z,1007.44
2018-08-19T10:35:58.152Z,1007.40
2018-08-19T10:36:58.132Z,1007.42
2018-08-19T10:37:58.181Z,1007.40
2018-08-19T10:38:58.139Z,1007.36
2018-08-19T10:39:58.140Z,1007.34
2018-08-19T10:40:58.136Z,1007.37
2018-08-19T10:41:58.138Z,1007.33
2018-08-19T10:42:58.124Z,1007.32
2018-08-19T10:43:58.121Z,1007.32
2018-08-19T10:44:58.125Z,1007.29
2018-08-19T10:45:58.118Z,1007.31
2018-08-19T10:46:58.114Z,1007.28
2018-08-19T10:47:58.121Z,1007.27
2018-08-19T10:48:58.103Z,1007.26
2018-08-19T10:49:58.104Z,1007.21
2018-08-19T10:50:58.094Z,1007.24
2018-08-19T10:51:58.092Z,1007.23
2018-08-19T10:52:58.138Z,1007.26
2018-08-19T10:53:58.086Z,1007.28
2018-08-19T10:54:58.080Z,1007.22
2018-08-19T10:55:58.078Z,1007.22
2018-08-19T10:56:58.071Z,1007.19
2018-08-19T10:57:58.064Z,1007.21
2018-08-19T10:58:58.069Z,1007.18
2018-08-19T10:59:58.374Z,1007.25
2018-08-19T11:00:58.061Z,1007.17
2018-08-19T11:01:58.044Z,1007.19
2018-08-19T11:02:58.037Z,1007.17
2018-08-19T11:03:58.043Z,1007.19
2018-08-19T11:04:58.024Z,1007.10
2018-08-19T11:05:58.028Z,1007.18
2018-08-19T11:06:58.024Z,1007.11
2018-08-19T11:07:58.005Z,1007.09
2018-08-19T11:08:58.004Z,1007.11
2018-08-19T11:09:58.008Z,1007.06
2018-08-19T11:10:57.999Z,1007.06
2018-08-19T11:11:58.027Z,1007.03
2018-08-19T11:12:57.987Z,1007.03
2018-08-19T11:13:58.046Z,1007.02
2018-08-19T11:14:57.970Z,1007.02
2018-08-19T11:15:57.985Z,1007.11
2018-08-19T11:16:57.960Z,1007.13
2018-08-19T11:17:57.969Z,1007.10
2018-08-19T11:18:57.960Z,1006.99
2018-08-19T11:19:57.974Z,1006.89
2018-08-19T11:20:57.986Z,1007.01
2018-08-19T11:21:57.941Z,1006.92
2018-08-19T11:22:57.936Z,1006.97
2018-08-19T11:23:57.960Z,1006.95
2018-08-19T11:24:57.964Z,1006.88
2018-08-19T11:25:57.921Z,1006.90
2018-08-19T11:26:57.927Z,1006.96
2018-08-19T11:27:57.915Z,1006.94
2018-08-19T11:28:57.907Z,1006.91
2018-08-19T11:29:57.932Z,1006.86
2018-08-19T11:30:57.896Z,1006.80
2018-08-19T11:31:57.904Z,1006.80
2018-08-19T11:32:57.889Z,1006.79
2018-08-19T11:33:57.895Z,1006.81
2018-08-19T11:34:57.878Z,1006.75
2018-08-19T11:35:57.865Z,1006.77
2018-08-19T11:36:57.871Z,1006.78
2018-08-19T11:37:57.860Z,1006.74
2018-08-19T11:38:57.862Z,1006.77
2018-08-19T11:39:57.855Z,1006.68
2018-08-19T11:40:57.883Z,1006.80
2018-08-19T11:41:57.862Z,1006.76
2018-08-19T11:42:57.894Z,1006.68
2018-08-19T11:43:59.825Z,1006.66
2018-08-19T11:44:57.825Z,1006.74
2018-08-19T11:45:57.849Z,1006.69
2018-08-19T11:46:57.804Z,1006.70
2018-08-19T11:47:57.807Z,1006.73
2018-08-19T11:48:57.808Z,1006.72
2018-08-19T11:49:57.833Z,1006.71
2018-08-19T11:50:57.789Z,1006.71
2018-08-19T11:51:57.792Z,1006.65
2018-08-19T11:52:57.788Z,1006.62
2018-08-19T11:53:57.772Z,1006.65
2018-08-19T11:54:57.838Z,1006.68
2018-08-19T11:55:57.767Z,1006.61
2018-08-19T11:56:57.765Z,1006.64
2018-08-19T11:57:57.763Z,1006.60
2018-08-19T11:58:57.757Z,1006.70
2018-08-19T11:59:57.742Z,1006.68
2018-08-19T12:00:57.795Z,1006.74
2018-08-19T12:01:57.746Z,1006.68
2018-08-19T12:02:57.731Z,1006.64
2018-08-19T12:03:57.724Z,1006.64
2018-08-19T12:04:57.727Z,1006.62